KBAF/BAF METAR and TAF weather

Enter ICAO airport designator
Station Type Date Time Source
KBAF METAR 2018/04/23 10:53 UTC NOAA

KBAF 231053Z 00000KT 10SM CLR M01/M04 A3049 RMK AO2 SLP329 T10061039


Station Type Date Time Source
KBAF Decoded METAR 2018/04/23 10:53 UTC NOAA

WESTFIELD BARNES MUNICIPAL, MA, United States (KBAF) 42-10N 072-43W 83M
Apr 23, 2018 - 06:53 AM EDT / 2018.04.23 1053 UTC
Wind: Calm:0
Visibility: 10 mile(s):0
Sky conditions: clear
Temperature: 30.9 F (-0.6 C)
Dew Point: 25.0 F (-3.9 C)
Relative Humidity: 78%
Pressure (altimeter): 30.49 in. Hg (1032 hPa)
ob: KBAF 231053Z 00000KT 10SM CLR M01/M04 A3049 RMK AO2 SLP329 T10061039
cycle: 11

Station Type Date Time Source
KBAF TAF 2018/04/23 12:32 UTC NOAA

TAF
AMD KBAF 231132Z 2312/2412 VRB03KT P6SM SKC
FM231700 17005KT P6SM SKC
FM240800 00000KT P6SM SKC
FM241100 16005KT P6SM SKC


Example: see airport list